createdAt,value
2024-01-08T00:00:41.105Z,23.36
2024-01-08T00:03:07.873Z,23.35
2024-01-08T00:05:38.687Z,23.36
2024-01-08T00:08:06.866Z,23.37
2024-01-08T00:10:33.507Z,23.37
2024-01-08T00:13:00.162Z,23.37
2024-01-08T00:15:27.286Z,23.37
2024-01-08T00:17:54.130Z,23.38
2024-01-08T00:20:20.936Z,23.37
2024-01-08T00:22:47.712Z,23.37
2024-01-08T00:25:14.537Z,23.39
2024-01-08T00:27:41.465Z,23.38
2024-01-08T00:30:08.774Z,23.38
2024-01-08T00:32:35.649Z,23.39
2024-01-08T00:35:02.623Z,23.39
2024-01-08T00:37:29.397Z,23.38
2024-01-08T00:39:56.099Z,23.38
2024-01-08T00:42:22.712Z,23.38
2024-01-08T00:44:49.377Z,23.39
2024-01-08T00:47:16.003Z,23.39
2024-01-08T00:49:42.836Z,23.41
2024-01-08T00:52:12.299Z,23.41
2024-01-08T00:54:38.905Z,23.41
2024-01-08T00:57:05.571Z,23.43
2024-01-08T00:59:32.356Z,23.43
2024-01-08T01:01:59.160Z,23.43
2024-01-08T01:04:27.067Z,23.45
2024-01-08T01:06:53.882Z,23.44
2024-01-08T01:09:20.892Z,23.44
2024-01-08T01:11:47.717Z,23.44
2024-01-08T01:14:14.419Z,23.46
2024-01-08T01:16:41.093Z,23.46
2024-01-08T01:19:08.006Z,23.45
2024-01-08T01:21:34.784Z,23.45
2024-01-08T01:24:01.415Z,23.46
2024-01-08T01:26:28.221Z,23.45
2024-01-08T01:28:55.837Z,23.46
2024-01-08T01:31:22.539Z,23.46
2024-01-08T01:33:49.325Z,23.47
2024-01-08T01:36:16.248Z,23.49
2024-01-08T01:38:43.003Z,23.49
2024-01-08T01:41:09.912Z,23.49
2024-01-08T01:43:36.627Z,23.49
2024-01-08T01:46:05.509Z,23.49
2024-01-08T01:48:32.518Z,23.50
2024-01-08T01:50:59.332Z,23.50
2024-01-08T01:53:26.210Z,23.51
2024-01-08T01:55:52.927Z,23.52
2024-01-08T01:58:19.972Z,23.52
2024-01-08T02:00:46.665Z,23.54
2024-01-08T02:03:13.416Z,23.54
2024-01-08T02:05:40.927Z,23.58
2024-01-08T02:08:07.949Z,23.59
2024-01-08T02:10:34.660Z,23.60
2024-01-08T02:13:01.811Z,23.61
2024-01-08T02:15:28.477Z,23.63
2024-01-08T02:17:55.667Z,23.64
2024-01-08T02:20:22.518Z,23.66
2024-01-08T02:22:49.297Z,23.65
2024-01-08T02:25:16.032Z,23.67
2024-01-08T02:27:42.933Z,23.68
2024-01-08T02:30:09.963Z,23.69
2024-01-08T02:32:36.813Z,23.70
2024-01-08T02:35:03.941Z,23.70
2024-01-08T02:37:30.696Z,23.71
2024-01-08T02:39:57.816Z,23.72
2024-01-08T02:42:24.556Z,23.72
2024-01-08T02:44:51.159Z,23.74
2024-01-08T02:47:17.881Z,23.74
2024-01-08T02:49:44.560Z,23.74
2024-01-08T02:52:11.181Z,23.74
2024-01-08T02:54:37.835Z,23.75
2024-01-08T02:57:04.826Z,23.75
2024-01-08T02:59:31.547Z,23.74
2024-01-08T03:01:58.338Z,23.75
2024-01-08T03:04:24.983Z,23.76
2024-01-08T03:06:51.864Z,23.76
2024-01-08T03:09:18.608Z,23.77
2024-01-08T03:11:45.278Z,23.78
2024-01-08T03:14:11.950Z,23.78
2024-01-08T03:16:38.660Z,23.79
2024-01-08T03:19:06.554Z,23.80
2024-01-08T03:21:33.288Z,23.81
2024-01-08T03:23:59.964Z,23.81
2024-01-08T03:26:26.671Z,23.81
2024-01-08T03:28:53.320Z,23.81
2024-01-08T03:31:19.935Z,23.80
2024-01-08T03:33:46.714Z,23.81
2024-01-08T03:36:13.484Z,23.81
2024-01-08T03:38:40.103Z,23.82
2024-01-08T03:41:06.746Z,23.83
2024-01-08T03:43:33.462Z,23.83
2024-01-08T03:46:00.212Z,23.84
2024-01-08T03:48:26.954Z,23.83
2024-01-08T03:50:53.920Z,23.84
2024-01-08T03:53:20.805Z,23.85
2024-01-08T03:55:47.534Z,23.85
2024-01-08T03:58:14.149Z,23.85
2024-01-08T04:00:41.388Z,23.86
2024-01-08T04:03:08.190Z,23.86
2024-01-08T04:05:35.124Z,23.86
2024-01-08T04:08:01.919Z,23.81
2024-01-08T04:10:28.614Z,23.74
2024-01-08T04:12:55.345Z,23.62
2024-01-08T04:15:22.127Z,23.47
2024-01-08T04:17:49.037Z,23.32
2024-01-08T04:20:16.068Z,23.17
2024-01-08T04:22:45.142Z,23.04
2024-01-08T04:25:11.872Z,22.79
2024-01-08T04:27:38.957Z,22.57
2024-01-08T04:30:06.521Z,22.38
2024-01-08T04:32:33.304Z,22.22
2024-01-08T04:34:59.972Z,22.09
2024-01-08T04:37:27.886Z,21.98
2024-01-08T04:39:54.740Z,21.90
2024-01-08T04:42:22.638Z,21.77
2024-01-08T04:44:49.732Z,21.68
2024-01-08T04:47:16.464Z,21.56
2024-01-08T04:49:43.109Z,21.48
2024-01-08T04:52:09.797Z,21.38
2024-01-08T04:54:36.452Z,21.29
2024-01-08T04:57:03.175Z,21.21
2024-01-08T04:59:29.845Z,21.13
2024-01-08T05:01:56.493Z,21.06
2024-01-08T05:04:23.169Z,20.99
2024-01-08T05:06:49.878Z,20.91
2024-01-08T05:09:16.568Z,20.83
2024-01-08T05:11:45.611Z,20.77
2024-01-08T05:14:14.092Z,20.71
2024-01-08T05:16:40.778Z,20.65
2024-01-08T05:19:07.532Z,20.60
2024-01-08T05:21:34.954Z,20.57
2024-01-08T05:24:01.651Z,20.54
2024-01-08T05:26:28.370Z,20.50
2024-01-08T05:28:55.171Z,20.46
2024-01-08T05:31:23.712Z,20.40
2024-01-08T05:33:51.014Z,20.35
2024-01-08T05:36:17.873Z,20.29
2024-01-08T05:38:44.557Z,20.26
2024-01-08T05:41:11.232Z,20.19
2024-01-08T05:43:41.530Z,20.15
2024-01-08T05:46:08.321Z,20.09
2024-01-08T05:48:38.641Z,20.07
2024-01-08T05:51:05.846Z,20.00
2024-01-08T05:53:32.633Z,19.93
2024-01-08T05:55:59.540Z,19.87
2024-01-08T05:58:26.680Z,19.81
2024-01-08T06:00:55.019Z,19.74
2024-01-08T06:03:25.059Z,19.66
2024-01-08T06:05:51.831Z,19.64
2024-01-08T06:08:18.624Z,19.65
2024-01-08T06:10:45.279Z,19.73
2024-01-08T06:13:12.098Z,19.82
2024-01-08T06:15:39.051Z,19.99
2024-01-08T06:18:08.067Z,20.23
2024-01-08T06:20:35.198Z,20.46
2024-01-08T06:23:03.001Z,20.69
2024-01-08T06:25:29.693Z,20.95
2024-01-08T06:27:56.295Z,21.22
2024-01-08T06:30:23.105Z,21.54
2024-01-08T06:32:50.119Z,21.85
2024-01-08T06:35:17.105Z,22.18
2024-01-08T06:37:43.822Z,22.51
2024-01-08T06:40:10.666Z,22.74
2024-01-08T06:42:51.754Z,22.90
2024-01-08T06:45:23.845Z,23.03
2024-01-08T06:47:50.494Z,23.13
2024-01-08T06:50:17.285Z,23.18
2024-01-08T06:52:45.436Z,23.23
2024-01-08T06:55:14.216Z,23.27
2024-01-08T06:57:40.899Z,23.37
2024-01-08T07:00:09.541Z,23.50
2024-01-08T07:02:36.375Z,23.34
2024-01-08T07:05:05.830Z,23.08
2024-01-08T07:07:32.491Z,23.04
2024-01-08T07:09:59.304Z,23.12
2024-01-08T07:12:26.234Z,23.20
2024-01-08T07:14:54.066Z,23.27
2024-01-08T07:17:22.286Z,23.39
2024-01-08T07:19:49.011Z,23.54
2024-01-08T07:22:15.688Z,23.70
2024-01-08T07:24:42.341Z,23.79
2024-01-08T07:27:09.202Z,23.89
2024-01-08T07:29:36.392Z,23.96
2024-01-08T07:32:03.577Z,23.99
2024-01-08T07:34:30.290Z,24.01
2024-01-08T07:36:57.156Z,24.08
2024-01-08T07:39:23.752Z,24.08
2024-01-08T07:41:50.933Z,24.05
2024-01-08T07:44:17.693Z,24.05
2024-01-08T07:46:44.402Z,24.05
2024-01-08T07:49:12.140Z,24.02
2024-01-08T07:51:40.618Z,24.02
2024-01-08T07:54:07.820Z,24.09
2024-01-08T07:56:45.361Z,24.12
2024-01-08T07:59:16.730Z,24.11
2024-01-08T08:01:43.774Z,24.10
2024-01-08T08:04:10.502Z,24.09
2024-01-08T08:06:37.293Z,24.12
2024-01-08T08:09:04.288Z,24.06
2024-01-08T08:11:31.078Z,23.95
2024-01-08T08:13:58.114Z,23.82
2024-01-08T08:16:25.754Z,23.65
2024-01-08T08:18:52.657Z,23.52
2024-01-08T08:21:19.717Z,23.38
2024-01-08T08:23:46.469Z,23.20
2024-01-08T08:26:15.948Z,23.05
2024-01-08T08:28:45.151Z,22.88
2024-01-08T08:31:11.825Z,22.70
2024-01-08T08:33:39.628Z,22.57
2024-01-08T08:36:06.570Z,22.43
2024-01-08T08:38:33.381Z,22.27
2024-01-08T08:41:02.799Z,22.13
2024-01-08T08:43:31.898Z,22.01
2024-01-08T08:46:01.044Z,21.92
2024-01-08T08:48:29.538Z,21.71
2024-01-08T08:50:56.310Z,21.08
2024-01-08T08:53:23.026Z,20.37
2024-01-08T08:55:49.849Z,20.24
2024-01-08T08:58:16.645Z,20.25
2024-01-08T09:00:43.325Z,20.27
2024-01-08T09:03:10.037Z,20.33
2024-01-08T09:05:40.443Z,20.36
2024-01-08T09:08:12.874Z,20.39
2024-01-08T09:10:39.601Z,20.42
2024-01-08T09:13:06.239Z,20.42
2024-01-08T09:15:32.926Z,20.41
2024-01-08T09:17:59.676Z,20.41
2024-01-08T09:20:26.773Z,20.39
2024-01-08T09:22:53.641Z,20.35
2024-01-08T09:25:20.761Z,20.32
2024-01-08T09:27:48.403Z,20.28
2024-01-08T09:30:18.678Z,20.24
2024-01-08T09:32:49.627Z,20.23
2024-01-08T09:35:16.448Z,20.21
2024-01-08T09:37:43.212Z,20.18
2024-01-08T09:40:11.552Z,20.16
2024-01-08T09:42:40.295Z,20.13
2024-01-08T09:45:11.594Z,20.10
2024-01-08T09:47:38.331Z,20.05
2024-01-08T09:50:05.432Z,19.99
2024-01-08T09:52:40.171Z,19.95
2024-01-08T09:55:09.655Z,19.90
2024-01-08T09:57:36.341Z,19.88
2024-01-08T10:00:04.516Z,19.86
2024-01-08T10:02:31.325Z,19.82
2024-01-08T10:04:58.092Z,19.78
2024-01-08T10:07:25.073Z,19.76
2024-01-08T10:09:52.098Z,19.79
2024-01-08T10:12:19.007Z,19.91
2024-01-08T10:14:45.965Z,20.06
2024-01-08T10:17:16.100Z,20.26
2024-01-08T10:19:43.117Z,20.46
2024-01-08T10:22:13.730Z,20.68
2024-01-08T10:24:41.864Z,20.98
2024-01-08T10:27:09.158Z,21.29
2024-01-08T10:29:37.192Z,21.62
2024-01-08T10:32:04.167Z,21.99
2024-01-08T10:34:31.501Z,22.34
2024-01-08T10:36:58.854Z,22.70
2024-01-08T10:39:34.501Z,22.93
2024-01-08T10:42:10.663Z,23.04
2024-01-08T10:44:37.397Z,23.21
2024-01-08T10:47:10.480Z,23.29
2024-01-08T10:49:38.176Z,23.35
2024-01-08T10:52:38.428Z,23.41
2024-01-08T10:55:05.858Z,23.56
2024-01-08T10:57:51.395Z,23.70
2024-01-08T11:00:18.134Z,23.82
2024-01-08T11:02:45.797Z,23.89
2024-01-08T11:05:15.347Z,23.98
2024-01-08T11:07:42.725Z,23.93
2024-01-08T11:10:10.713Z,24.00
2024-01-08T11:12:38.073Z,24.01
2024-01-08T11:15:05.807Z,24.02
2024-01-08T11:17:33.604Z,24.05
2024-01-08T11:20:01.309Z,24.21
2024-01-08T11:22:28.686Z,24.35
2024-01-08T11:24:59.032Z,24.45
2024-01-08T11:27:26.193Z,24.55
2024-01-08T11:30:02.654Z,24.64
2024-01-08T11:32:58.199Z,24.68
2024-01-08T11:35:28.607Z,24.74
2024-01-08T11:38:23.329Z,24.73
2024-01-08T11:40:50.152Z,24.72
2024-01-08T11:43:18.697Z,24.72
2024-01-08T11:45:45.849Z,24.73
2024-01-08T11:48:12.809Z,24.73
2024-01-08T11:50:43.308Z,24.70
2024-01-08T11:53:12.119Z,24.61
2024-01-08T11:55:41.315Z,24.69
2024-01-08T11:58:08.429Z,24.76
2024-01-08T12:00:35.468Z,24.77
2024-01-08T12:03:06.172Z,24.72
2024-01-08T12:05:33.584Z,24.68
2024-01-08T12:08:00.503Z,24.67
2024-01-08T12:10:27.480Z,24.65
2024-01-08T12:12:57.012Z,24.48
2024-01-08T12:15:23.968Z,24.31
2024-01-08T12:17:51.152Z,24.16
2024-01-08T12:20:18.049Z,23.98
2024-01-08T12:22:45.235Z,23.80
2024-01-08T12:25:13.573Z,23.63
2024-01-08T12:27:40.340Z,23.47
2024-01-08T12:30:08.842Z,23.33
2024-01-08T12:32:35.616Z,23.18
2024-01-08T12:35:06.020Z,23.02
2024-01-08T12:37:34.448Z,22.88
2024-01-08T12:40:02.014Z,22.75
2024-01-08T12:42:29.142Z,22.60
2024-01-08T12:44:56.309Z,22.48
2024-01-08T12:47:24.258Z,22.39
2024-01-08T12:49:51.196Z,22.27
2024-01-08T12:52:17.934Z,22.15
2024-01-08T12:54:47.367Z,22.04
2024-01-08T12:57:15.246Z,21.95
2024-01-08T12:59:52.484Z,21.87
2024-01-08T13:02:19.383Z,21.78
2024-01-08T13:04:47.108Z,21.70
2024-01-08T13:07:14.191Z,21.62
2024-01-08T13:09:40.936Z,21.55
2024-01-08T13:12:08.962Z,21.48
2024-01-08T13:14:35.868Z,21.42
2024-01-08T13:17:02.542Z,21.36
2024-01-08T13:19:29.431Z,21.29
2024-01-08T13:21:56.184Z,21.23
2024-01-08T13:26:50.627Z,21.14
2024-01-08T13:29:17.332Z,21.09
2024-01-08T13:31:47.080Z,21.04
2024-01-08T13:34:16.037Z,20.97
2024-01-08T13:36:43.804Z,20.93
2024-01-08T13:39:10.643Z,20.89
2024-01-08T13:41:39.354Z,20.83
2024-01-08T13:44:06.476Z,20.78
2024-01-08T13:46:35.156Z,20.75
2024-01-08T13:49:02.291Z,20.69
2024-01-08T13:51:29.081Z,20.63
2024-01-08T13:53:55.762Z,20.58
2024-01-08T13:56:22.510Z,20.52
2024-01-08T13:58:51.883Z,20.48
2024-01-08T14:01:18.634Z,20.43
2024-01-08T14:03:45.717Z,20.39
2024-01-08T14:06:14.099Z,20.32
2024-01-08T14:08:41.121Z,20.30
2024-01-08T14:11:08.118Z,20.35
2024-01-08T14:13:35.106Z,20.42
2024-01-08T14:16:02.342Z,20.52
2024-01-08T14:18:29.393Z,20.65
2024-01-08T14:20:56.653Z,20.77
2024-01-08T14:23:23.564Z,20.93
2024-01-08T14:25:50.283Z,21.12
2024-01-08T14:28:16.920Z,21.37
2024-01-08T14:30:43.677Z,21.69
2024-01-08T14:33:10.624Z,22.03
2024-01-08T14:35:37.521Z,22.38
2024-01-08T14:38:04.423Z,22.67
2024-01-08T14:40:31.793Z,23.02
2024-01-08T14:43:01.404Z,23.28
2024-01-08T14:45:28.656Z,23.47
2024-01-08T14:47:55.651Z,23.61
2024-01-08T14:50:23.950Z,23.68
2024-01-08T14:52:51.117Z,23.70
2024-01-08T14:55:18.264Z,23.74
2024-01-08T14:57:45.084Z,23.77
2024-01-08T15:00:12.697Z,23.82
2024-01-08T15:02:40.332Z,24.02
2024-01-08T15:05:07.751Z,24.13
2024-01-08T15:07:34.447Z,24.19
2024-01-08T15:10:02.515Z,24.21
2024-01-08T15:12:35.598Z,24.15
2024-01-08T15:15:02.384Z,24.09
2024-01-08T15:17:29.403Z,24.10
2024-01-08T15:19:56.123Z,24.19
2024-01-08T15:22:22.883Z,24.28
2024-01-08T15:24:56.641Z,24.36
2024-01-08T15:27:26.736Z,24.47
2024-01-08T15:29:54.106Z,24.58
2024-01-08T15:32:24.436Z,24.59
2024-01-08T15:34:51.916Z,24.64
2024-01-08T15:37:18.614Z,24.60
2024-01-08T15:39:45.301Z,24.58
2024-01-08T15:42:12.361Z,24.54
2024-01-08T15:44:39.259Z,24.53
2024-01-08T15:47:06.367Z,24.55
2024-01-08T15:49:33.230Z,24.54
2024-01-08T15:52:00.739Z,24.49
2024-01-08T15:54:27.481Z,24.48
2024-01-08T15:56:54.350Z,24.47
2024-01-08T15:59:21.295Z,24.45
2024-01-08T16:01:48.052Z,24.45
2024-01-08T16:04:15.134Z,24.46
2024-01-08T16:06:41.957Z,24.47
2024-01-08T16:09:09.108Z,24.42
2024-01-08T16:11:35.762Z,24.33
2024-01-08T16:14:02.484Z,24.22
2024-01-08T16:16:29.110Z,24.10
2024-01-08T16:18:57.643Z,23.96
2024-01-08T16:21:25.478Z,23.82
2024-01-08T16:23:58.956Z,23.69
2024-01-08T16:26:33.221Z,23.56
2024-01-08T16:28:59.928Z,23.34
2024-01-08T16:31:27.836Z,23.14
2024-01-08T16:33:54.578Z,22.98
2024-01-08T16:36:21.927Z,22.81
2024-01-08T16:38:49.367Z,22.67
2024-01-08T16:41:16.101Z,22.54
2024-01-08T16:43:42.781Z,22.41
2024-01-08T16:46:12.353Z,22.30
2024-01-08T16:48:39.104Z,22.20
2024-01-08T16:51:07.057Z,22.10
2024-01-08T16:53:34.517Z,22.02
2024-01-08T16:56:01.862Z,21.93
2024-01-08T16:58:28.670Z,21.83
2024-01-08T17:00:56.193Z,21.75
2024-01-08T17:03:24.010Z,21.66
2024-01-08T17:05:50.809Z,21.57
2024-01-08T17:08:17.546Z,21.49
2024-01-08T17:10:44.355Z,21.40
2024-01-08T17:13:12.152Z,21.31
2024-01-08T17:15:38.804Z,21.25
2024-01-08T17:18:05.824Z,21.20
2024-01-08T17:20:32.643Z,21.13
2024-01-08T17:22:59.439Z,21.06
2024-01-08T17:25:26.091Z,21.00
2024-01-08T17:27:52.735Z,20.93
2024-01-08T17:30:19.441Z,20.87
2024-01-08T17:32:46.234Z,20.81
2024-01-08T17:35:13.437Z,20.75
2024-01-08T17:37:40.204Z,20.70
2024-01-08T17:40:07.351Z,20.65
2024-01-08T17:42:36.467Z,20.60
2024-01-08T17:45:06.472Z,20.55
2024-01-08T17:47:36.461Z,20.49
2024-01-08T17:50:03.530Z,20.42
2024-01-08T17:52:31.882Z,20.36
2024-01-08T17:54:58.631Z,20.30
2024-01-08T17:57:25.379Z,20.24
2024-01-08T17:59:52.071Z,20.19
2024-01-08T18:02:18.906Z,20.13
2024-01-08T18:04:47.374Z,20.08
2024-01-08T18:07:15.468Z,20.04
2024-01-08T18:09:42.655Z,20.01
2024-01-08T18:12:09.314Z,20.05
2024-01-08T18:14:35.994Z,20.13
2024-01-08T18:17:04.784Z,20.25
2024-01-08T18:19:32.154Z,20.41
2024-01-08T18:21:59.086Z,20.58
2024-01-08T18:24:31.572Z,20.78
2024-01-08T18:27:00.739Z,21.01
2024-01-08T18:29:28.141Z,21.27
2024-01-08T18:31:54.977Z,21.56
2024-01-08T18:34:21.801Z,21.92
2024-01-08T18:36:48.820Z,22.28
2024-01-08T18:39:17.294Z,22.67
2024-01-08T18:41:45.337Z,22.96
2024-01-08T18:44:12.129Z,23.14
2024-01-08T18:46:38.889Z,23.25
2024-01-08T18:49:05.789Z,23.31
2024-01-08T18:51:33.581Z,23.39
2024-01-08T18:54:00.307Z,23.46
2024-01-08T18:56:27.010Z,23.54
2024-01-08T18:58:53.701Z,23.70
2024-01-08T19:01:21.245Z,23.86
2024-01-08T19:03:48.181Z,23.97
2024-01-08T19:06:15.936Z,23.99
2024-01-08T19:08:42.647Z,24.03
2024-01-08T19:11:09.406Z,24.00
2024-01-08T19:13:38.463Z,23.94
2024-01-08T19:16:05.428Z,23.84
2024-01-08T19:18:33.731Z,23.78
2024-01-08T19:21:00.656Z,23.68
2024-01-08T19:23:27.890Z,23.58
2024-01-08T19:25:54.632Z,23.54
2024-01-08T19:28:21.381Z,23.47
2024-01-08T19:30:48.156Z,23.46
2024-01-08T19:33:15.018Z,23.45
2024-01-08T19:35:41.798Z,23.42
2024-01-08T19:38:08.517Z,23.43
2024-01-08T19:40:35.293Z,23.41
2024-01-08T19:43:02.042Z,23.44
2024-01-08T19:45:28.688Z,23.43
2024-01-08T19:47:55.456Z,23.42
2024-01-08T19:50:22.279Z,23.41
2024-01-08T19:52:49.303Z,23.41
2024-01-08T19:55:16.088Z,23.40
2024-01-08T19:57:42.871Z,23.40
2024-01-08T20:00:12.681Z,23.38
2024-01-08T20:02:40.158Z,23.38
2024-01-08T20:05:08.228Z,23.35
2024-01-08T20:07:35.674Z,23.38
2024-01-08T20:10:02.347Z,23.38
2024-01-08T20:12:28.946Z,23.36
2024-01-08T20:14:55.652Z,23.39
2024-01-08T20:17:22.472Z,23.39
2024-01-08T20:19:49.224Z,23.49
2024-01-08T20:22:15.895Z,23.59
2024-01-08T20:24:42.722Z,23.70
2024-01-08T20:27:11.864Z,23.72
2024-01-08T20:29:40.699Z,23.75
2024-01-08T20:32:07.849Z,23.73
2024-01-08T20:34:34.598Z,23.73
2024-01-08T20:37:01.261Z,23.72
2024-01-08T20:39:27.952Z,23.67
2024-01-08T20:41:54.723Z,23.68
2024-01-08T20:44:21.480Z,23.66
2024-01-08T20:46:48.202Z,23.68
2024-01-08T20:49:15.015Z,23.66
2024-01-08T20:51:41.670Z,23.62
2024-01-08T20:54:08.376Z,23.60
2024-01-08T20:56:35.839Z,23.59
2024-01-08T20:59:02.743Z,23.59
2024-01-08T21:01:29.518Z,23.60
2024-01-08T21:03:56.490Z,23.61
2024-01-08T21:06:23.564Z,23.58
2024-01-08T21:08:50.472Z,23.55
2024-01-08T21:11:17.241Z,23.56
2024-01-08T21:13:44.761Z,23.55
2024-01-08T21:16:11.417Z,23.57
2024-01-08T21:18:38.215Z,23.53
2024-01-08T21:21:11.670Z,23.60
2024-01-08T21:23:38.524Z,23.60
2024-01-08T21:26:05.386Z,23.60
2024-01-08T21:28:32.299Z,23.61
2024-01-08T21:30:59.012Z,23.67
2024-01-08T21:33:25.898Z,23.68
2024-01-08T21:35:52.767Z,23.71
2024-01-08T21:38:19.595Z,23.74
2024-01-08T21:40:46.347Z,23.79
2024-01-08T21:43:12.971Z,23.86
2024-01-08T21:45:39.636Z,23.88
2024-01-08T21:48:09.687Z,23.93
2024-01-08T21:50:36.532Z,23.91
2024-01-08T21:53:03.468Z,23.96
2024-01-08T21:55:32.712Z,24.00
2024-01-08T21:57:59.759Z,24.00
2024-01-08T22:00:26.769Z,24.01
2024-01-08T22:02:53.717Z,24.05
2024-01-08T22:05:20.554Z,24.04
2024-01-08T22:07:47.276Z,24.07
2024-01-08T22:10:14.039Z,24.09
2024-01-08T22:12:42.661Z,24.10
2024-01-08T22:15:10.318Z,24.12
2024-01-08T22:17:37.948Z,24.12
2024-01-08T22:20:05.172Z,24.14
2024-01-08T22:22:31.853Z,24.11
2024-01-08T22:24:58.465Z,24.14
2024-01-08T22:27:25.105Z,24.14
2024-01-08T22:29:51.808Z,24.16
2024-01-08T22:32:18.502Z,24.17
2024-01-08T22:34:45.620Z,24.15
2024-01-08T22:37:12.389Z,24.17
2024-01-08T22:39:39.058Z,24.18
2024-01-08T22:42:05.944Z,24.21
2024-01-08T22:44:32.664Z,24.19
2024-01-08T22:46:59.396Z,24.20
2024-01-08T22:49:26.376Z,24.23
2024-01-08T22:51:55.250Z,24.22
2024-01-08T22:54:22.416Z,24.22
2024-01-08T22:56:49.491Z,24.24
2024-01-08T22:59:16.264Z,24.23
2024-01-08T23:01:47.257Z,24.26
2024-01-08T23:04:14.308Z,24.26
2024-01-08T23:06:41.075Z,24.26
2024-01-08T23:09:10.625Z,24.29
2024-01-08T23:11:38.265Z,24.28
2024-01-08T23:14:05.447Z,24.27
2024-01-08T23:16:32.363Z,24.30
2024-01-08T23:18:59.623Z,24.30
2024-01-08T23:21:26.353Z,24.28
2024-01-08T23:23:53.118Z,24.30
2024-01-08T23:26:19.988Z,24.30
2024-01-08T23:28:46.684Z,24.33
2024-01-08T23:31:13.356Z,24.32
2024-01-08T23:33:40.110Z,24.31
2024-01-08T23:36:07.283Z,24.34
2024-01-08T23:38:34.114Z,24.35
2024-01-08T23:41:00.804Z,24.35
2024-01-08T23:43:27.466Z,24.34
2024-01-08T23:45:54.200Z,24.34
2024-01-08T23:48:21.107Z,24.37
2024-01-08T23:50:47.955Z,24.35
2024-01-08T23:53:14.771Z,24.36
2024-01-08T23:55:41.505Z,24.39
2024-01-08T23:58:08.159Z,24.39
